createdAt,value
2023-02-28T00:00:11.530Z,4.38
2023-02-28T00:00:24.571Z,4.44
2023-02-28T00:00:37.997Z,4.48
2023-02-28T00:00:51.037Z,4.47
2023-02-28T00:01:04.175Z,4.55
2023-02-28T00:01:17.093Z,4.54
2023-02-28T00:01:30.483Z,4.51
2023-02-28T00:01:43.668Z,4.49
2023-02-28T00:01:56.577Z,4.45
2023-02-28T00:02:09.615Z,4.40
2023-02-28T00:02:22.552Z,4.48
2023-02-28T00:02:35.622Z,4.46
2023-02-28T00:02:48.589Z,4.47
2023-02-28T00:03:01.519Z,4.46
2023-02-28T00:03:14.589Z,4.44
2023-02-28T00:03:27.545Z,4.43
2023-02-28T00:03:40.578Z,4.47
2023-02-28T00:03:53.499Z,4.35
2023-02-28T00:04:06.717Z,4.32
2023-02-28T00:04:19.592Z,4.34
2023-02-28T00:04:32.561Z,4.33
2023-02-28T00:04:45.639Z,4.32
2023-02-28T00:05:02.120Z,4.37
2023-02-28T00:05:17.432Z,4.36
2023-02-28T00:05:30.407Z,4.35
2023-02-28T00:05:43.401Z,4.39
2023-02-28T00:05:56.348Z,4.43
2023-02-28T00:06:10.616Z,4.47
2023-02-28T00:06:23.590Z,4.45
2023-02-28T00:06:36.487Z,4.44
2023-02-28T00:06:49.475Z,4.44
2023-02-28T00:07:02.495Z,4.48
2023-02-28T00:07:15.593Z,4.47
2023-02-28T00:07:29.077Z,4.52
2023-02-28T00:07:43.053Z,4.53
2023-02-28T00:07:56.116Z,4.51
2023-02-28T00:08:09.462Z,4.51
2023-02-28T00:08:22.382Z,4.53
2023-02-28T00:08:35.383Z,4.53
2023-02-28T00:08:48.793Z,4.55
2023-02-28T00:09:01.740Z,4.50
2023-02-28T00:09:14.641Z,4.54
2023-02-28T00:09:27.639Z,4.55
2023-02-28T00:09:40.544Z,4.54
2023-02-28T00:09:53.517Z,4.54
2023-02-28T00:10:10.326Z,4.56
2023-02-28T00:10:27.928Z,4.58
2023-02-28T00:10:40.774Z,4.55
2023-02-28T00:10:53.657Z,4.55
2023-02-28T00:11:08.101Z,4.51
2023-02-28T00:11:21.983Z,4.50
2023-02-28T00:11:34.991Z,4.49
2023-02-28T00:11:48.094Z,4.52
2023-02-28T00:12:01.112Z,4.51
2023-02-28T00:12:14.136Z,4.54
2023-02-28T00:12:27.300Z,4.51
2023-02-28T00:12:41.044Z,4.49
2023-02-28T00:12:55.027Z,4.56
2023-02-28T00:13:08.224Z,4.53
2023-02-28T00:13:21.159Z,4.55
2023-02-28T00:13:35.531Z,4.56
2023-02-28T00:13:48.762Z,4.59
2023-02-28T00:14:01.830Z,4.62
2023-02-28T00:14:14.771Z,4.59
2023-02-28T00:14:27.736Z,4.58
2023-02-28T00:14:40.846Z,4.64
2023-02-28T00:14:54.034Z,4.64
2023-02-28T00:15:10.038Z,4.63
2023-02-28T00:15:23.887Z,4.62
2023-02-28T00:15:36.999Z,4.61
2023-02-28T00:16:09.522Z,4.65
2023-02-28T00:16:22.823Z,4.65
2023-02-28T00:16:35.873Z,4.65
2023-02-28T00:16:48.836Z,4.67
2023-02-28T00:17:01.837Z,4.65
2023-02-28T00:17:14.767Z,4.63
2023-02-28T00:17:27.930Z,4.66
2023-02-28T00:17:40.906Z,4.63
2023-02-28T00:17:53.980Z,4.65
2023-02-28T00:18:06.988Z,4.67
2023-02-28T00:18:19.989Z,4.64
2023-02-28T00:18:32.941Z,4.62
2023-02-28T00:18:46.319Z,4.59
2023-02-28T00:18:59.306Z,4.54
2023-02-28T00:19:14.348Z,4.49
2023-02-28T00:19:27.370Z,4.51
2023-02-28T00:19:40.373Z,4.58
2023-02-28T00:19:53.414Z,4.56
2023-02-28T00:20:11.138Z,4.54
2023-02-28T00:20:24.053Z,4.60
2023-02-28T00:20:36.877Z,4.62
2023-02-28T00:20:49.827Z,4.55
2023-02-28T00:21:02.811Z,4.54
2023-02-28T00:21:16.772Z,4.54
2023-02-28T00:21:30.099Z,4.52
2023-02-28T00:21:43.973Z,4.53
2023-02-28T00:21:56.992Z,4.54
2023-02-28T00:22:09.942Z,4.54
2023-02-28T00:22:22.957Z,4.60
2023-02-28T00:22:35.895Z,4.61
2023-02-28T00:22:51.087Z,4.58
2023-02-28T00:23:04.093Z,4.53
2023-02-28T00:23:17.060Z,4.53
2023-02-28T00:23:31.942Z,4.47
2023-02-28T00:23:44.977Z,4.49
2023-02-28T00:24:36.548Z,4.46
2023-02-28T00:24:53.442Z,4.46
2023-02-28T00:25:08.145Z,4.46
2023-02-28T00:25:40.975Z,4.47
2023-02-28T00:26:13.839Z,4.49
2023-02-28T00:27:04.950Z,4.49
2023-02-28T00:27:40.262Z,4.51
2023-02-28T00:28:12.967Z,4.55
2023-02-28T00:28:45.659Z,4.51
2023-02-28T00:29:18.752Z,4.45
2023-02-28T00:29:51.430Z,4.44
2023-02-28T00:30:24.401Z,4.49
2023-02-28T00:31:15.702Z,4.51
2023-02-28T00:31:49.780Z,4.46
2023-02-28T00:32:22.688Z,4.48
2023-02-28T00:32:55.302Z,4.48
2023-02-28T00:33:29.048Z,4.46
2023-02-28T00:34:02.620Z,4.50
2023-02-28T00:34:38.646Z,4.51
2023-02-28T00:35:11.745Z,4.49
2023-02-28T00:35:47.516Z,4.53
2023-02-28T00:36:22.471Z,4.53
2023-02-28T00:36:55.366Z,4.53
2023-02-28T00:37:28.955Z,4.51
2023-02-28T00:38:01.721Z,4.52
2023-02-28T00:38:18.629Z,4.48
2023-02-28T00:38:51.909Z,4.47
2023-02-28T00:39:21.224Z,4.47
2023-02-28T00:39:54.012Z,4.46
2023-02-28T00:40:26.703Z,4.50
2023-02-28T00:40:59.670Z,4.56
2023-02-28T00:41:32.340Z,4.57
2023-02-28T00:42:05.220Z,4.60
2023-02-28T00:42:18.346Z,4.63
2023-02-28T00:42:31.322Z,4.61
2023-02-28T00:42:44.455Z,4.59
2023-02-28T00:42:57.454Z,4.54
2023-02-28T00:43:10.386Z,4.52
2023-02-28T00:43:23.402Z,4.52
2023-02-28T00:43:37.234Z,4.51
2023-02-28T00:43:52.134Z,4.53
2023-02-28T00:44:05.519Z,4.52
2023-02-28T00:44:23.003Z,4.43
2023-02-28T00:44:36.062Z,4.44
2023-02-28T00:44:49.043Z,4.44
2023-02-28T00:45:02.431Z,4.48
2023-02-28T00:45:15.536Z,4.44
2023-02-28T00:45:28.572Z,4.48
2023-02-28T00:45:41.501Z,4.51
2023-02-28T00:45:54.528Z,4.47
2023-02-28T00:46:07.736Z,4.47
2023-02-28T00:46:20.816Z,4.50
2023-02-28T00:46:34.015Z,4.52
2023-02-28T00:46:47.105Z,4.45
2023-02-28T00:47:00.223Z,4.47
2023-02-28T00:47:13.244Z,4.40
2023-02-28T00:47:26.460Z,4.40
2023-02-28T00:47:39.578Z,4.42
2023-02-28T00:47:52.740Z,4.44
2023-02-28T00:48:07.307Z,4.44
2023-02-28T00:48:20.314Z,4.43
2023-02-28T00:48:33.341Z,4.43
2023-02-28T00:48:46.428Z,4.46
2023-02-28T00:48:59.609Z,4.46
2023-02-28T00:49:12.578Z,4.42
2023-02-28T00:49:26.057Z,4.42
2023-02-28T00:49:39.050Z,4.41
2023-02-28T00:49:52.070Z,4.39
2023-02-28T00:50:05.687Z,4.43
2023-02-28T00:50:22.194Z,4.41
2023-02-28T00:50:35.278Z,4.39
2023-02-28T00:50:52.991Z,4.46
2023-02-28T00:51:05.852Z,4.45
2023-02-28T00:51:18.759Z,4.44
2023-02-28T00:51:31.745Z,4.45
2023-02-28T00:51:44.712Z,4.47
2023-02-28T00:51:57.853Z,4.47
2023-02-28T00:52:10.761Z,4.47
2023-02-28T00:52:23.861Z,4.43
2023-02-28T00:52:36.859Z,4.47
2023-02-28T00:52:49.844Z,4.46
2023-02-28T00:53:02.780Z,4.48
2023-02-28T00:53:15.766Z,4.50
2023-02-28T00:53:28.975Z,4.47
2023-02-28T00:53:42.060Z,4.48
2023-02-28T00:53:55.258Z,4.50
2023-02-28T00:54:08.263Z,4.44
2023-02-28T00:54:21.499Z,4.42
2023-02-28T00:54:34.478Z,4.46
2023-02-28T00:54:47.460Z,4.49
2023-02-28T00:55:00.541Z,4.49
2023-02-28T00:55:13.610Z,4.47
2023-02-28T00:55:26.604Z,4.46
2023-02-28T00:55:39.537Z,4.48
2023-02-28T00:55:52.610Z,4.41
2023-02-28T00:56:06.112Z,4.38
2023-02-28T00:56:19.141Z,4.38
2023-02-28T00:56:32.127Z,4.40
2023-02-28T00:56:47.102Z,4.47
2023-02-28T00:57:00.324Z,4.41
2023-02-28T00:57:13.310Z,4.41
2023-02-28T00:57:26.315Z,4.46
2023-02-28T00:57:39.259Z,4.45
2023-02-28T00:57:52.307Z,4.44
2023-02-28T00:58:05.324Z,4.44
2023-02-28T00:58:20.716Z,4.47
2023-02-28T00:58:33.642Z,4.45
2023-02-28T00:58:46.572Z,4.45
2023-02-28T00:58:59.500Z,4.44
2023-02-28T00:59:12.936Z,4.44
2023-02-28T00:59:25.979Z,4.49
2023-02-28T00:59:38.967Z,4.47
2023-02-28T00:59:51.970Z,4.48
2023-02-28T01:00:05.629Z,4.53
2023-02-28T01:00:18.960Z,4.52
2023-02-28T01:00:32.034Z,4.52
2023-02-28T01:00:50.212Z,4.54
2023-02-28T01:01:03.387Z,4.54
2023-02-28T01:01:16.286Z,4.54
2023-02-28T01:01:29.696Z,4.53
2023-02-28T01:01:43.390Z,4.55
2023-02-28T01:01:56.431Z,4.54
2023-02-28T01:02:09.490Z,4.52
2023-02-28T01:02:23.438Z,4.50
2023-02-28T01:02:38.647Z,4.49
2023-02-28T01:02:51.722Z,4.53
2023-02-28T01:03:04.746Z,4.55
2023-02-28T01:03:18.441Z,4.53
2023-02-28T01:03:31.461Z,4.58
2023-02-28T01:03:44.564Z,4.62
2023-02-28T01:03:59.447Z,4.57
2023-02-28T01:04:12.365Z,4.57
2023-02-28T01:04:25.499Z,4.53
2023-02-28T01:04:38.584Z,4.55
2023-02-28T01:04:51.658Z,4.58
2023-02-28T01:05:05.388Z,4.60
2023-02-28T01:05:18.564Z,4.60
2023-02-28T01:05:31.580Z,4.56
2023-02-28T01:05:44.597Z,4.54
2023-02-28T01:05:57.585Z,4.51
2023-02-28T01:06:10.557Z,4.49
2023-02-28T01:06:23.486Z,4.50
2023-02-28T01:06:37.231Z,4.49
2023-02-28T01:06:50.236Z,4.51
2023-02-28T01:07:03.190Z,4.50
2023-02-28T01:07:16.244Z,4.46
2023-02-28T01:07:29.177Z,4.50
2023-02-28T01:07:42.114Z,4.53
2023-02-28T01:07:55.067Z,4.58
2023-02-28T01:08:08.003Z,4.59
2023-02-28T01:08:20.989Z,4.60
2023-02-28T01:08:33.952Z,4.56
2023-02-28T01:08:46.910Z,4.58
2023-02-28T01:09:00.475Z,4.57
2023-02-28T01:09:13.514Z,4.55
2023-02-28T01:09:26.528Z,4.54
2023-02-28T01:09:39.511Z,4.52
2023-02-28T01:09:55.496Z,4.51
2023-02-28T01:10:09.515Z,4.51
2023-02-28T01:10:22.590Z,4.54
2023-02-28T01:10:37.513Z,4.51
2023-02-28T01:10:50.508Z,4.50
2023-02-28T01:11:11.181Z,4.50
2023-02-28T01:11:23.954Z,4.54
2023-02-28T01:11:36.891Z,4.56
2023-02-28T01:11:49.984Z,4.53
2023-02-28T01:12:02.935Z,4.49
2023-02-28T01:12:16.196Z,4.51
2023-02-28T01:12:30.919Z,4.52
2023-02-28T01:12:44.040Z,4.50
2023-02-28T01:12:57.018Z,4.54
2023-02-28T01:13:09.910Z,4.56
2023-02-28T01:13:24.208Z,4.58
2023-02-28T01:13:37.146Z,4.56
2023-02-28T01:13:50.087Z,4.59
2023-02-28T01:14:03.295Z,4.57
2023-02-28T01:14:16.824Z,4.52
2023-02-28T01:14:29.785Z,4.52
2023-02-28T01:14:45.654Z,4.56
2023-02-28T01:14:59.106Z,4.53
2023-02-28T01:15:12.398Z,4.53
2023-02-28T01:15:25.408Z,4.54
2023-02-28T01:15:39.284Z,4.52
2023-02-28T01:15:53.903Z,4.52
2023-02-28T01:16:07.492Z,4.49
2023-02-28T01:16:20.484Z,4.48
2023-02-28T01:16:33.506Z,4.48
2023-02-28T01:16:46.420Z,4.54
2023-02-28T01:16:59.321Z,4.53
2023-02-28T01:17:12.320Z,4.51
2023-02-28T01:17:25.238Z,4.50
2023-02-28T01:17:38.201Z,4.49
2023-02-28T01:17:56.695Z,4.49
2023-02-28T01:18:09.473Z,4.49
2023-02-28T01:18:23.175Z,4.56
2023-02-28T01:19:28.032Z,4.56
2023-02-28T01:19:46.413Z,4.52
2023-02-28T01:19:59.341Z,4.49
2023-02-28T01:20:12.557Z,4.49
2023-02-28T01:20:25.523Z,4.45
2023-02-28T01:20:39.244Z,4.50
2023-02-28T01:20:53.446Z,4.51
2023-02-28T01:21:07.606Z,4.55
2023-02-28T01:21:21.476Z,4.52
2023-02-28T01:21:37.436Z,4.50
2023-02-28T01:21:50.403Z,4.51
2023-02-28T01:22:04.749Z,4.46
2023-02-28T01:22:17.755Z,4.48
2023-02-28T01:22:30.812Z,4.48
2023-02-28T01:22:43.844Z,4.50
2023-02-28T01:22:56.982Z,4.49
2023-02-28T01:23:09.925Z,4.53
2023-02-28T01:23:24.564Z,4.50
2023-02-28T01:23:37.550Z,4.47
2023-02-28T01:23:50.606Z,4.53
2023-02-28T01:24:04.759Z,4.53
2023-02-28T01:24:17.698Z,4.57
2023-02-28T01:24:30.671Z,4.60
2023-02-28T01:24:43.595Z,4.60
2023-02-28T01:24:56.509Z,4.57
2023-02-28T01:25:09.606Z,4.55
2023-02-28T01:25:22.630Z,4.54
2023-02-28T01:25:36.566Z,4.51
2023-02-28T01:25:49.655Z,4.54
2023-02-28T01:26:09.179Z,4.54
2023-02-28T01:26:23.164Z,4.49
2023-02-28T01:26:36.145Z,4.51
2023-02-28T01:26:49.139Z,4.49
2023-02-28T01:27:02.088Z,4.48
2023-02-28T01:27:15.148Z,4.48
2023-02-28T01:27:29.512Z,4.44
2023-02-28T01:27:42.493Z,4.40
2023-02-28T01:27:55.505Z,4.36
2023-02-28T01:28:08.425Z,4.35
2023-02-28T01:28:21.501Z,4.33
2023-02-28T01:28:34.447Z,4.39
2023-02-28T01:28:47.511Z,4.45
2023-02-28T01:29:00.553Z,4.52
2023-02-28T01:29:13.531Z,4.49
2023-02-28T01:29:26.556Z,4.48
2023-02-28T01:29:39.553Z,4.47
2023-02-28T01:29:52.644Z,4.50
2023-02-28T01:30:06.123Z,4.49
2023-02-28T01:30:19.152Z,4.43
2023-02-28T01:30:32.188Z,4.38
2023-02-28T01:30:49.328Z,4.43
2023-02-28T01:31:02.540Z,4.47
2023-02-28T01:31:15.594Z,4.57
2023-02-28T01:31:29.090Z,4.56
2023-02-28T01:31:42.234Z,4.56
2023-02-28T01:31:55.294Z,4.54
2023-02-28T01:32:08.300Z,4.55
2023-02-28T01:32:21.369Z,4.52
2023-02-28T01:32:34.392Z,4.49
2023-02-28T01:32:47.338Z,4.49
2023-02-28T01:33:00.729Z,4.53
2023-02-28T01:33:13.674Z,4.55
2023-02-28T01:33:26.906Z,4.48
2023-02-28T01:33:40.035Z,4.49
2023-02-28T01:33:53.080Z,4.51
2023-02-28T01:34:06.087Z,4.48
2023-02-28T01:34:20.437Z,4.50
2023-02-28T01:34:33.354Z,4.39
2023-02-28T01:34:46.267Z,4.46
2023-02-28T01:34:59.174Z,4.46
2023-02-28T01:35:12.142Z,4.39
2023-02-28T01:35:25.101Z,4.41
2023-02-28T01:35:38.063Z,4.36
2023-02-28T01:35:51.126Z,4.32
2023-02-28T01:36:08.471Z,4.29
2023-02-28T01:36:22.204Z,4.31
2023-02-28T01:36:34.919Z,4.35
2023-02-28T01:36:47.904Z,4.36
2023-02-28T01:37:00.888Z,4.33
2023-02-28T01:37:13.790Z,4.36
2023-02-28T01:37:26.853Z,4.38
2023-02-28T01:37:39.916Z,4.40
2023-02-28T01:37:52.853Z,4.50
2023-02-28T01:38:20.934Z,4.48
2023-02-28T01:38:34.977Z,4.51
2023-02-28T01:38:48.253Z,4.44
2023-02-28T01:39:01.274Z,4.47
2023-02-28T01:39:14.206Z,4.47
2023-02-28T01:39:27.448Z,4.48
2023-02-28T01:39:40.501Z,4.42
2023-02-28T01:39:53.464Z,4.40
2023-02-28T01:40:07.121Z,4.47
2023-02-28T01:40:20.199Z,4.48
2023-02-28T01:40:33.177Z,4.52
2023-02-28T01:40:46.066Z,4.53
2023-02-28T01:40:59.025Z,4.52
2023-02-28T01:41:20.157Z,4.48
2023-02-28T01:41:33.969Z,4.43
2023-02-28T01:41:46.752Z,4.46
2023-02-28T01:41:59.780Z,4.38
2023-02-28T01:42:12.762Z,4.40
2023-02-28T01:42:25.685Z,4.38
2023-02-28T01:42:38.624Z,4.43
2023-02-28T01:42:51.693Z,4.48
2023-02-28T01:43:08.971Z,4.53
2023-02-28T01:43:26.718Z,4.56
2023-02-28T01:43:45.129Z,4.55
2023-02-28T01:44:04.361Z,4.52
2023-02-28T01:44:35.765Z,4.48
2023-02-28T01:45:16.974Z,4.47
2023-02-28T01:45:30.738Z,4.44
2023-02-28T01:45:43.711Z,4.39
2023-02-28T01:45:57.510Z,4.46
2023-02-28T01:46:11.268Z,4.49
2023-02-28T01:46:24.427Z,4.47
2023-02-28T01:46:37.615Z,4.52
2023-02-28T01:46:50.628Z,4.46
2023-02-28T01:47:03.559Z,4.39
2023-02-28T01:47:16.565Z,4.44
2023-02-28T01:47:39.772Z,4.37
2023-02-28T01:47:53.354Z,4.23
2023-02-28T01:48:08.795Z,4.23
2023-02-28T01:48:27.222Z,4.22
2023-02-28T01:48:45.841Z,4.18
2023-02-28T01:49:00.538Z,4.22
2023-02-28T01:49:14.696Z,4.21
2023-02-28T01:49:27.735Z,4.19
2023-02-28T01:49:40.773Z,4.20
2023-02-28T01:49:53.714Z,4.18
2023-02-28T01:50:08.900Z,4.15
2023-02-28T01:50:24.109Z,4.11
2023-02-28T01:50:38.648Z,4.19
2023-02-28T01:50:51.645Z,4.23
2023-02-28T01:51:06.976Z,4.24
2023-02-28T01:51:52.893Z,4.14
2023-02-28T01:52:05.837Z,4.21
2023-02-28T01:52:19.355Z,4.21
2023-02-28T01:52:32.347Z,4.22
2023-02-28T01:52:45.339Z,4.20
2023-02-28T01:52:59.442Z,4.20
2023-02-28T01:53:14.888Z,4.20
2023-02-28T01:53:36.421Z,4.23
2023-02-28T01:53:52.868Z,4.21
2023-02-28T01:54:14.743Z,4.20
2023-02-28T01:54:30.227Z,4.15
2023-02-28T01:54:43.300Z,4.24
2023-02-28T01:54:57.569Z,4.24
2023-02-28T01:55:10.527Z,4.20
2023-02-28T01:55:23.642Z,4.13
2023-02-28T01:55:36.581Z,4.07
2023-02-28T01:55:50.269Z,4.03
2023-02-28T01:56:04.354Z,4.05
2023-02-28T01:56:21.871Z,4.06
2023-02-28T01:56:34.896Z,4.07
2023-02-28T01:56:53.588Z,4.07
2023-02-28T01:57:11.234Z,4.14
2023-02-28T01:57:25.361Z,4.23
2023-02-28T01:57:41.091Z,4.27
2023-02-28T01:57:54.922Z,4.20
2023-02-28T01:58:08.043Z,4.21
2023-02-28T01:58:21.108Z,4.17
2023-02-28T01:58:34.512Z,4.12
2023-02-28T01:58:56.575Z,4.06
2023-02-28T01:59:09.298Z,4.07
2023-02-28T01:59:26.505Z,4.17
2023-02-28T01:59:51.274Z,4.15
2023-02-28T02:00:15.736Z,4.20
2023-02-28T02:00:28.848Z,4.12
2023-02-28T02:00:43.926Z,4.08
2023-02-28T02:00:58.468Z,4.03
2023-02-28T02:01:22.703Z,4.04
2023-02-28T02:01:35.762Z,4.05
2023-02-28T02:01:48.750Z,3.99
2023-02-28T02:02:02.477Z,3.99
2023-02-28T02:02:16.027Z,3.99
2023-02-28T02:02:29.029Z,3.96
2023-02-28T02:02:46.241Z,4.00
2023-02-28T02:03:00.943Z,4.07
2023-02-28T02:03:17.196Z,4.11
2023-02-28T02:03:30.432Z,4.07
2023-02-28T02:03:43.387Z,4.09
2023-02-28T02:04:00.427Z,4.02
2023-02-28T02:04:13.396Z,3.98
2023-02-28T02:04:27.493Z,3.99
2023-02-28T02:04:43.700Z,3.98
2023-02-28T02:05:02.809Z,3.87
2023-02-28T02:05:26.318Z,3.87
2023-02-28T02:05:40.384Z,3.88
2023-02-28T02:05:53.358Z,3.89
2023-02-28T02:06:06.566Z,3.95
2023-02-28T02:06:19.528Z,3.98
2023-02-28T02:06:52.670Z,4.00
2023-02-28T02:07:05.625Z,4.08
2023-02-28T02:07:18.564Z,4.06
2023-02-28T02:07:33.992Z,3.99
2023-02-28T02:07:47.925Z,3.93
2023-02-28T02:08:05.819Z,3.80
2023-02-28T02:08:26.912Z,3.71
2023-02-28T02:08:39.833Z,3.78
2023-02-28T02:08:53.534Z,3.86
2023-02-28T02:09:07.250Z,3.86
2023-02-28T02:09:20.215Z,3.87
2023-02-28T02:09:33.194Z,3.85
2023-02-28T02:09:46.197Z,3.89
2023-02-28T02:10:03.877Z,3.80
2023-02-28T02:10:17.065Z,3.74
2023-02-28T02:10:36.730Z,3.72
2023-02-28T02:10:54.472Z,3.60
2023-02-28T02:11:09.743Z,3.62
2023-02-28T02:11:23.313Z,3.61
2023-02-28T02:11:36.229Z,3.56
2023-02-28T02:11:49.112Z,3.63
2023-02-28T02:12:05.449Z,3.74
2023-02-28T02:12:46.431Z,3.81
2023-02-28T02:13:32.967Z,3.90
2023-02-28T02:14:05.216Z,3.96
2023-02-28T02:14:33.446Z,4.02
2023-02-28T02:15:06.920Z,4.05
2023-02-28T02:15:27.640Z,3.92
2023-02-28T02:16:05.373Z,3.80
2023-02-28T02:16:47.162Z,3.86
2023-02-28T02:17:20.801Z,3.91
2023-02-28T02:17:38.064Z,3.98
2023-02-28T02:17:53.413Z,3.91
2023-02-28T02:18:27.312Z,3.89
2023-02-28T02:18:49.754Z,3.67
2023-02-28T02:19:09.095Z,3.54
2023-02-28T02:19:52.722Z,3.50
2023-02-28T02:20:14.444Z,3.53
2023-02-28T02:20:36.052Z,3.74
2023-02-28T02:21:01.055Z,3.85
2023-02-28T02:21:55.571Z,3.88
2023-02-28T02:22:20.781Z,3.74
2023-02-28T02:22:56.558Z,3.91
2023-02-28T02:23:30.444Z,3.99
2023-02-28T02:23:52.474Z,4.02
2023-02-28T02:24:36.323Z,3.97
2023-02-28T02:24:58.277Z,3.91
2023-02-28T02:25:12.756Z,3.90
2023-02-28T02:26:03.298Z,3.92
2023-02-28T02:26:40.802Z,3.97
2023-02-28T02:27:13.679Z,4.02
2023-02-28T02:27:32.073Z,3.96
2023-02-28T02:28:05.939Z,4.05
2023-02-28T03:02:11.541Z,3.97
2023-02-28T03:02:24.389Z,3.74
2023-02-28T03:02:38.049Z,3.61
2023-02-28T03:02:51.027Z,3.61
2023-02-28T03:03:04.110Z,3.58
2023-02-28T03:03:18.786Z,3.51
2023-02-28T03:03:31.881Z,3.48
2023-02-28T03:03:44.989Z,3.44
2023-02-28T03:04:15.090Z,3.41
2023-02-28T03:04:30.147Z,3.13
2023-02-28T03:05:02.487Z,3.05
2023-02-28T03:06:48.088Z,3.63
2023-02-28T03:07:01.386Z,3.53
2023-02-28T03:07:16.749Z,3.55
2023-02-28T03:07:30.051Z,3.64
2023-02-28T03:07:50.630Z,3.67
2023-02-28T03:08:06.821Z,3.73
2023-02-28T03:08:19.824Z,3.73
2023-02-28T03:08:38.467Z,3.70
2023-02-28T03:08:51.589Z,3.64
2023-02-28T03:09:05.557Z,3.60
2023-02-28T03:09:18.518Z,3.56
2023-02-28T03:09:34.237Z,3.58
2023-02-28T03:09:54.548Z,3.67
2023-02-28T03:10:37.367Z,3.53
2023-02-28T03:10:51.463Z,3.51
2023-02-28T03:11:06.550Z,3.40
2023-02-28T03:11:21.606Z,3.42
2023-02-28T03:11:35.754Z,3.46
2023-02-28T03:11:48.680Z,3.46
2023-02-28T03:12:01.630Z,3.47
2023-02-28T03:12:14.563Z,3.40
2023-02-28T03:12:45.724Z,3.45
2023-02-28T03:13:33.039Z,3.66
2023-02-28T03:14:03.780Z,3.71
2023-02-28T03:14:30.202Z,3.76
2023-02-28T03:15:11.065Z,3.75
2023-02-28T03:15:28.795Z,3.71
2023-02-28T03:16:13.568Z,3.61
2023-02-28T03:16:47.197Z,3.67
2023-02-28T03:17:25.100Z,3.78
2023-02-28T03:17:53.658Z,3.35
2023-02-28T03:18:23.660Z,3.36
2023-02-28T03:18:48.721Z,3.54
2023-02-28T03:19:08.278Z,3.65
2023-02-28T03:19:53.838Z,3.75
2023-02-28T03:20:14.999Z,3.62
2023-02-28T03:20:59.192Z,3.57
2023-02-28T03:21:38.351Z,3.64
2023-02-28T03:22:00.235Z,3.50
2023-02-28T03:22:31.788Z,3.51
2023-02-28T03:23:09.779Z,3.51
2023-02-28T03:23:36.638Z,3.42
2023-02-28T03:24:02.076Z,3.51
2023-02-28T03:24:30.519Z,3.63
2023-02-28T03:25:04.569Z,3.63
2023-02-28T03:25:26.117Z,3.54
2023-02-28T03:26:13.697Z,3.48
2023-02-28T03:26:27.791Z,3.58
2023-02-28T03:26:43.295Z,3.72
2023-02-28T03:27:08.757Z,3.74
2023-02-28T03:27:30.243Z,3.76
2023-02-28T03:27:46.634Z,3.81
2023-02-28T03:28:17.907Z,3.86
2023-02-28T03:29:06.423Z,3.84
2023-02-28T03:29:29.683Z,3.81
2023-02-28T03:29:52.078Z,3.63
2023-02-28T03:30:07.901Z,3.68
2023-02-28T03:30:48.024Z,3.65
2023-02-28T03:31:10.343Z,3.57
2023-02-28T03:31:37.651Z,3.59
2023-02-28T03:32:05.156Z,3.59
2023-02-28T03:32:25.804Z,3.71
2023-02-28T03:32:42.916Z,3.79
2023-02-28T03:33:02.577Z,3.79
2023-02-28T03:33:24.191Z,3.81
2023-02-28T03:33:56.110Z,3.87
2023-02-28T03:34:12.117Z,3.92
2023-02-28T03:34:31.456Z,3.95
2023-02-28T03:34:53.470Z,3.93
2023-02-28T03:35:23.004Z,3.89
2023-02-28T03:35:41.651Z,3.85
2023-02-28T03:36:09.402Z,4.01
2023-02-28T03:36:33.831Z,4.03
2023-02-28T03:36:49.218Z,4.10
2023-02-28T03:37:05.707Z,4.20
2023-02-28T03:37:21.274Z,4.16
2023-02-28T03:37:37.001Z,4.11
2023-02-28T03:37:53.417Z,4.08
2023-02-28T03:39:08.303Z,3.99
2023-02-28T03:39:29.543Z,4.04
2023-02-28T03:39:45.369Z,4.06
2023-02-28T03:40:04.982Z,4.00
2023-02-28T03:40:21.303Z,3.87
2023-02-28T03:40:34.752Z,3.74
2023-02-28T03:40:55.574Z,3.82
2023-02-28T03:41:11.862Z,3.90
2023-02-28T03:41:48.911Z,3.99
2023-02-28T03:42:04.011Z,3.98
2023-02-28T03:42:21.582Z,3.89
2023-02-28T03:42:35.511Z,3.83
2023-02-28T03:42:50.357Z,3.87
2023-02-28T03:43:05.719Z,3.86
2023-02-28T03:43:21.480Z,3.85
2023-02-28T03:43:36.250Z,3.88
2023-02-28T03:43:57.123Z,3.90
2023-02-28T03:44:16.562Z,3.77
2023-02-28T03:44:34.656Z,3.62
2023-02-28T03:44:51.735Z,3.62
2023-02-28T03:45:12.435Z,3.63
2023-02-28T03:45:30.112Z,3.62
2023-02-28T03:45:43.140Z,3.69
2023-02-28T03:45:56.356Z,3.70
2023-02-28T03:46:11.697Z,3.68
2023-02-28T03:46:26.658Z,3.67
2023-02-28T03:46:39.895Z,3.56
2023-02-28T03:46:59.399Z,3.52
2023-02-28T03:47:15.899Z,3.58
2023-02-28T03:47:33.189Z,3.66
2023-02-28T03:47:51.149Z,3.72
2023-02-28T03:48:15.162Z,3.71
2023-02-28T03:48:33.040Z,3.86
2023-02-28T03:48:49.577Z,3.93
2023-02-28T03:49:03.859Z,3.97
2023-02-28T03:49:28.493Z,3.99
2023-02-28T03:49:48.856Z,4.03
2023-02-28T03:50:18.412Z,4.02
2023-02-28T03:50:41.341Z,3.98
2023-02-28T03:50:56.245Z,4.01
2023-02-28T03:51:09.940Z,4.02
2023-02-28T03:51:23.995Z,4.01
2023-02-28T03:51:36.926Z,3.93
2023-02-28T03:51:50.352Z,3.99
2023-02-28T03:52:04.498Z,4.05
2023-02-28T03:52:17.578Z,4.04
2023-02-28T03:52:33.781Z,4.01
2023-02-28T03:53:02.140Z,3.95
2023-02-28T03:53:16.110Z,3.90
2023-02-28T03:53:32.009Z,3.89
2023-02-28T03:53:55.946Z,3.82
2023-02-28T03:54:11.131Z,3.89
2023-02-28T03:54:34.635Z,3.91
2023-02-28T03:54:50.228Z,3.93
2023-02-28T03:55:08.216Z,3.88
2023-02-28T03:55:21.391Z,3.73
2023-02-28T03:55:40.947Z,3.59
2023-02-28T03:56:22.752Z,3.49
2023-02-28T03:56:55.025Z,3.57
2023-02-28T03:57:38.162Z,3.76
2023-02-28T03:58:05.365Z,3.61
2023-02-28T03:58:37.790Z,3.36
2023-02-28T03:59:03.620Z,3.31
2023-02-28T03:59:20.711Z,3.29
2023-02-28T03:59:40.063Z,3.27
2023-02-28T04:00:01.237Z,3.29
2023-02-28T04:00:18.624Z,3.35
2023-02-28T04:00:35.436Z,3.49
2023-02-28T04:00:50.932Z,3.57
2023-02-28T04:01:10.190Z,3.67
2023-02-28T04:01:38.085Z,3.67
2023-02-28T04:01:51.242Z,3.74
2023-02-28T04:02:04.358Z,3.80
2023-02-28T04:02:17.397Z,3.81
2023-02-28T04:02:30.332Z,3.80
2023-02-28T04:02:43.320Z,3.82
2023-02-28T04:02:56.714Z,3.77
2023-02-28T04:03:09.729Z,3.76
2023-02-28T04:03:22.664Z,3.76
2023-02-28T04:03:38.496Z,3.76
2023-02-28T04:03:51.486Z,3.82
2023-02-28T04:04:04.664Z,3.78
2023-02-28T04:04:17.742Z,3.80
2023-02-28T04:04:30.753Z,3.91
2023-02-28T04:04:49.837Z,3.91
2023-02-28T04:05:02.930Z,3.92
2023-02-28T04:05:16.109Z,3.92
2023-02-28T04:05:29.155Z,3.96
2023-02-28T04:06:08.790Z,3.94
2023-02-28T04:06:23.432Z,4.01
2023-02-28T04:06:36.479Z,4.01
2023-02-28T04:06:53.527Z,4.04
2023-02-28T04:07:08.837Z,4.01
2023-02-28T04:07:21.734Z,4.00
2023-02-28T04:07:34.764Z,3.97
2023-02-28T04:07:47.758Z,3.98
2023-02-28T04:08:07.633Z,3.99
2023-02-28T04:08:20.824Z,3.94
2023-02-28T04:08:33.715Z,3.92
2023-02-28T04:08:46.950Z,3.92
2023-02-28T04:09:00.952Z,3.91
2023-02-28T04:09:15.098Z,3.96
2023-02-28T04:09:28.830Z,4.00
2023-02-28T04:09:42.092Z,4.02
2023-02-28T04:09:55.045Z,4.03
2023-02-28T04:10:08.354Z,3.94
2023-02-28T04:10:21.392Z,3.87
2023-02-28T04:10:34.440Z,3.86
2023-02-28T04:10:51.245Z,3.77
2023-02-28T04:11:08.095Z,3.78
2023-02-28T04:11:27.154Z,3.87
2023-02-28T04:11:44.386Z,3.85
2023-02-28T04:11:57.454Z,3.97
2023-02-28T04:12:10.434Z,3.86
2023-02-28T04:12:24.301Z,3.76
2023-02-28T04:12:37.256Z,3.77
2023-02-28T04:12:50.247Z,3.81
2023-02-28T04:13:03.199Z,3.82
2023-02-28T04:13:16.119Z,3.78
2023-02-28T04:13:29.048Z,3.79
2023-02-28T04:13:42.007Z,3.82
2023-02-28T04:13:54.941Z,3.86
2023-02-28T04:14:08.809Z,3.83
2023-02-28T04:14:21.764Z,3.77
2023-02-28T04:14:34.678Z,3.76
2023-02-28T04:14:47.592Z,3.85
2023-02-28T04:15:00.612Z,3.78
2023-02-28T04:15:13.586Z,3.72
2023-02-28T04:15:28.373Z,3.76
2023-02-28T04:15:41.508Z,3.75
2023-02-28T04:15:54.672Z,3.69
2023-02-28T04:16:24.550Z,3.73
2023-02-28T04:16:45.520Z,3.79
2023-02-28T04:16:58.443Z,3.81
2023-02-28T04:17:11.309Z,3.69
2023-02-28T04:17:24.218Z,3.67
2023-02-28T04:17:37.173Z,3.57
2023-02-28T04:17:50.170Z,3.62
2023-02-28T04:18:03.656Z,3.70
2023-02-28T04:18:16.724Z,3.71
2023-02-28T04:18:29.699Z,3.77
2023-02-28T04:18:44.178Z,3.81
2023-02-28T04:19:03.124Z,3.85
2023-02-28T04:19:16.297Z,3.82
2023-02-28T04:19:29.208Z,3.76
2023-02-28T04:19:42.143Z,3.81
2023-02-28T04:19:57.719Z,3.80
2023-02-28T04:20:11.511Z,3.85
2023-02-28T04:20:24.490Z,3.86
2023-02-28T04:20:37.663Z,3.87
2023-02-28T04:20:50.644Z,3.82
2023-02-28T04:21:03.584Z,3.78
2023-02-28T04:21:16.558Z,3.79
2023-02-28T04:21:30.757Z,3.85
2023-02-28T04:21:48.463Z,3.84
2023-02-28T04:22:01.390Z,3.73
2023-02-28T04:22:14.773Z,3.67
2023-02-28T04:22:27.702Z,3.68
2023-02-28T04:22:40.706Z,3.69
2023-02-28T04:22:53.662Z,3.74
2023-02-28T04:23:06.583Z,3.75
2023-02-28T04:23:19.533Z,3.82
2023-02-28T04:23:32.572Z,3.85
2023-02-28T04:23:45.454Z,3.87
2023-02-28T04:24:01.651Z,3.91
2023-02-28T04:24:16.238Z,3.89